createdAt,value
2022-10-09T00:01:16.313Z,3.67
2022-10-09T00:03:45.664Z,3.33
2022-10-09T00:06:20.698Z,2.58
2022-10-09T00:08:47.297Z,2.17
2022-10-09T00:11:16.991Z,2.28
2022-10-09T00:13:44.090Z,2.63
2022-10-09T00:16:14.633Z,2.15
2022-10-09T00:18:42.100Z,2.63
2022-10-09T00:21:21.275Z,2.47
2022-10-09T00:23:48.897Z,2.28
2022-10-09T00:26:15.716Z,2.38
2022-10-09T00:28:42.360Z,2.63
2022-10-09T00:31:10.489Z,3.28
2022-10-09T00:33:38.959Z,2.55
2022-10-09T00:36:07.458Z,2.35
2022-10-09T00:38:34.313Z,2.47
2022-10-09T00:41:01.258Z,2.10
2022-10-09T00:43:52.433Z,2.50
2022-10-09T00:46:48.115Z,2.42
2022-10-09T00:49:26.834Z,2.55
2022-10-09T00:51:55.652Z,2.13
2022-10-09T00:54:27.136Z,2.55
2022-10-09T00:56:54.508Z,2.08
2022-10-09T00:59:21.913Z,2.15
2022-10-09T01:01:48.567Z,2.50
2022-10-09T01:04:15.373Z,2.40
2022-10-09T01:07:00.242Z,2.28
2022-10-09T01:09:39.616Z,2.40
2022-10-09T01:12:06.063Z,2.85
2022-10-09T01:14:38.152Z,2.72
2022-10-09T01:20:12.629Z,2.55
2022-10-09T01:23:07.963Z,2.97
2022-10-09T01:25:39.755Z,3.10
2022-10-09T01:28:07.833Z,2.75
2022-10-09T01:30:35.409Z,2.42
2022-10-09T01:33:03.160Z,3.10
2022-10-09T01:35:30.921Z,3.00
2022-10-09T01:37:59.634Z,2.83
2022-10-09T01:40:28.395Z,3.63
2022-10-09T01:42:55.518Z,2.92
2022-10-09T01:45:22.040Z,2.95
2022-10-09T01:47:48.773Z,3.22
2022-10-09T01:50:15.222Z,3.10
2022-10-09T01:52:54.561Z,3.40
2022-10-09T01:55:42.725Z,3.83
2022-10-09T01:58:09.218Z,3.20
2022-10-09T02:00:44.281Z,3.15
2022-10-09T02:03:14.463Z,3.08
2022-10-09T02:05:43.200Z,2.72
2022-10-09T02:08:15.073Z,3.05
2022-10-09T02:10:43.688Z,3.60
2022-10-09T02:13:10.712Z,3.28
2022-10-09T02:15:50.693Z,3.22
2022-10-09T02:18:29.603Z,3.47
2022-10-09T02:21:01.658Z,3.10
2022-10-09T02:25:55.723Z,3.58
2022-10-09T02:28:22.803Z,3.60
2022-10-09T02:31:01.429Z,3.10
2022-10-09T02:33:32.761Z,3.38
2022-10-09T02:35:59.444Z,3.55
2022-10-09T02:38:26.559Z,3.13
2022-10-09T02:40:53.081Z,3.45
2022-10-09T02:43:19.728Z,3.55
2022-10-09T02:45:46.257Z,3.53
2022-10-09T02:48:12.767Z,3.17
2022-10-09T02:50:39.312Z,3.50
2022-10-09T02:53:05.852Z,3.40
2022-10-09T02:55:32.412Z,2.90
2022-10-09T02:57:58.917Z,2.72
2022-10-09T03:00:25.457Z,2.92
2022-10-09T03:02:52.768Z,2.20
2022-10-09T03:05:19.590Z,3.00
2022-10-09T03:07:51.315Z,2.70
2022-10-09T03:10:19.684Z,2.30
2022-10-09T03:12:47.044Z,2.90
2022-10-09T03:15:14.112Z,2.63
2022-10-09T03:17:40.663Z,3.03
2022-10-09T03:20:08.023Z,2.75
2022-10-09T03:22:34.586Z,2.90
2022-10-09T03:25:01.095Z,2.80
2022-10-09T03:27:27.627Z,3.25
2022-10-09T03:29:54.161Z,3.38
2022-10-09T03:32:20.695Z,2.85
2022-10-09T03:34:47.209Z,2.83
2022-10-09T03:37:13.808Z,3.38
2022-10-09T03:39:40.306Z,3.40
2022-10-09T03:42:06.833Z,3.13
2022-10-09T03:44:33.407Z,3.00
2022-10-09T03:47:00.104Z,2.40
2022-10-09T03:49:26.679Z,2.85
2022-10-09T03:51:53.173Z,2.80
2022-10-09T03:54:19.767Z,2.65
2022-10-09T03:56:46.302Z,2.40
2022-10-09T03:59:13.001Z,2.97
2022-10-09T04:01:39.855Z,2.95
2022-10-09T04:04:06.388Z,3.13
2022-10-09T04:06:33.057Z,3.05
2022-10-09T04:09:01.264Z,2.65
2022-10-09T04:11:27.755Z,3.08
2022-10-09T04:13:54.412Z,3.17
2022-10-09T04:16:21.036Z,3.30
2022-10-09T04:18:47.966Z,3.50
2022-10-09T04:21:14.533Z,3.47
2022-10-09T04:23:41.076Z,3.00
2022-10-09T04:26:07.629Z,3.60
2022-10-09T04:28:34.261Z,3.70
2022-10-09T04:31:01.794Z,4.15
2022-10-09T04:33:28.392Z,3.55
2022-10-09T04:35:56.028Z,3.58
2022-10-09T04:38:23.680Z,3.60
2022-10-09T04:41:01.400Z,3.78
2022-10-09T04:43:29.039Z,3.47
2022-10-09T04:45:55.914Z,3.42
2022-10-09T04:48:22.920Z,3.88
2022-10-09T04:50:49.515Z,4.32
2022-10-09T04:53:16.064Z,4.07
2022-10-09T04:55:43.568Z,4.32
2022-10-09T04:58:11.722Z,4.25
2022-10-09T05:00:46.455Z,3.72
2022-10-09T05:03:13.318Z,4.25
2022-10-09T05:05:39.886Z,3.60
2022-10-09T05:08:06.694Z,3.40
2022-10-09T05:10:33.332Z,3.80
2022-10-09T05:13:00.042Z,3.30
2022-10-09T05:15:27.037Z,3.50
2022-10-09T05:17:53.615Z,3.13
2022-10-09T05:20:20.186Z,3.10
2022-10-09T05:22:47.786Z,3.20
2022-10-09T05:25:14.641Z,2.63
2022-10-09T05:27:41.421Z,3.30
2022-10-09T05:30:09.020Z,3.20
2022-10-09T05:32:35.706Z,2.63
2022-10-09T05:35:02.237Z,2.70
2022-10-09T05:37:28.767Z,2.50
2022-10-09T05:39:55.360Z,3.08
2022-10-09T05:42:21.898Z,2.95
2022-10-09T05:44:48.537Z,2.70
2022-10-09T05:47:17.905Z,2.95
2022-10-09T05:49:44.411Z,2.85
2022-10-09T05:52:11.070Z,3.08
2022-10-09T05:54:37.593Z,2.63
2022-10-09T05:57:04.977Z,2.55
2022-10-09T05:59:31.585Z,3.22
2022-10-09T06:01:59.148Z,3.05
2022-10-09T06:04:25.802Z,3.25
2022-10-09T06:06:52.393Z,2.65
2022-10-09T06:09:25.395Z,3.55
2022-10-09T06:11:53.998Z,2.72
2022-10-09T06:14:24.493Z,2.85
2022-10-09T06:16:51.239Z,2.38
2022-10-09T06:19:19.453Z,2.63
2022-10-09T06:21:47.254Z,2.60
2022-10-09T06:24:22.240Z,2.38
2022-10-09T06:26:51.047Z,2.85
2022-10-09T06:31:44.020Z,2.83
2022-10-09T06:34:11.139Z,2.67
2022-10-09T06:36:37.787Z,2.80
2022-10-09T06:39:06.729Z,3.13
2022-10-09T06:41:34.223Z,2.65
2022-10-09T06:44:06.387Z,3.28
2022-10-09T06:46:37.964Z,2.97
2022-10-09T06:49:06.293Z,3.10
2022-10-09T06:51:34.272Z,2.88
2022-10-09T06:54:03.344Z,3.00
2022-10-09T06:56:32.222Z,2.70
2022-10-09T06:59:03.709Z,2.60
2022-10-09T07:01:32.252Z,2.55
2022-10-09T07:04:07.319Z,2.70
2022-10-09T07:06:37.253Z,2.72
2022-10-09T07:09:07.220Z,2.35
2022-10-09T07:11:39.460Z,2.60
2022-10-09T07:14:08.034Z,2.20
2022-10-09T07:16:37.653Z,2.60
2022-10-09T07:19:07.738Z,2.28
2022-10-09T07:21:38.521Z,2.53
2022-10-09T07:24:06.041Z,2.47
2022-10-09T07:26:35.991Z,2.70
2022-10-09T07:29:04.273Z,2.30
2022-10-09T07:31:30.826Z,2.20
2022-10-09T07:33:57.706Z,2.08
2022-10-09T07:36:24.445Z,2.30
2022-10-09T07:38:55.515Z,2.80
2022-10-09T07:41:24.313Z,2.40
2022-10-09T07:43:51.013Z,2.17
2022-10-09T07:46:20.083Z,2.60
2022-10-09T07:48:47.305Z,2.53
2022-10-09T07:51:19.876Z,2.70
2022-10-09T07:53:47.482Z,2.30
2022-10-09T07:56:19.734Z,2.22
2022-10-09T07:58:54.579Z,2.58
2022-10-09T08:01:22.747Z,2.42
2022-10-09T08:03:50.050Z,2.13
2022-10-09T08:06:18.218Z,2.60
2022-10-09T08:08:45.406Z,2.42
2022-10-09T08:11:15.199Z,2.67
2022-10-09T08:13:42.815Z,2.25
2022-10-09T08:16:09.783Z,2.90
2022-10-09T08:18:37.046Z,2.85
2022-10-09T08:23:34.274Z,2.70
2022-10-09T08:26:00.921Z,2.30
2022-10-09T08:28:27.573Z,2.33
2022-10-09T08:30:54.209Z,2.90
2022-10-09T08:33:23.282Z,2.53
2022-10-09T08:35:50.384Z,2.67
2022-10-09T08:38:37.520Z,2.63
2022-10-09T08:41:09.264Z,2.65
2022-10-09T08:46:20.906Z,3.15
2022-10-09T08:48:49.363Z,2.55
2022-10-09T08:51:23.496Z,2.65
2022-10-09T08:54:22.880Z,2.72
2022-10-09T08:56:51.844Z,2.50
2022-10-09T08:59:18.377Z,2.83
2022-10-09T09:02:13.131Z,2.75
2022-10-09T09:04:58.349Z,2.83
2022-10-09T09:07:40.578Z,2.55
2022-10-09T09:10:22.195Z,2.85
2022-10-09T09:13:02.808Z,3.95
2022-10-09T09:16:03.546Z,2.83
2022-10-09T09:18:51.311Z,2.85
2022-10-09T09:21:37.964Z,2.72
2022-10-09T09:24:13.921Z,2.70
2022-10-09T09:26:43.371Z,2.60
2022-10-09T09:29:13.959Z,2.92
2022-10-09T09:31:41.504Z,2.65
2022-10-09T09:34:36.388Z,2.50
2022-10-09T09:37:03.434Z,2.42
2022-10-09T09:40:24.217Z,3.03
2022-10-09T09:42:21.256Z,2.70
2022-10-09T09:45:02.970Z,2.75
2022-10-09T09:47:47.770Z,2.65
2022-10-09T09:50:35.097Z,2.78
2022-10-09T09:53:05.106Z,2.45
2022-10-09T09:55:33.849Z,2.20
2022-10-09T09:58:03.865Z,2.58
2022-10-09T10:00:30.770Z,2.30
2022-10-09T10:03:15.210Z,2.63
2022-10-09T10:05:43.597Z,2.10
2022-10-09T10:08:14.856Z,1.88
2022-10-09T10:10:47.718Z,1.80
2022-10-09T10:13:23.533Z,2.00
2022-10-09T10:15:55.897Z,1.92
2022-10-09T10:18:25.830Z,2.58
2022-10-09T10:20:55.921Z,2.03
2022-10-09T10:23:32.959Z,2.13
2022-10-09T10:26:03.655Z,1.80
2022-10-09T10:28:45.350Z,2.08
2022-10-09T10:31:21.861Z,2.30
2022-10-09T10:33:54.221Z,2.05
2022-10-09T10:36:20.998Z,2.20
2022-10-09T10:39:00.742Z,2.15
2022-10-09T10:41:42.516Z,2.67
2022-10-09T10:44:18.144Z,2.20
2022-10-09T10:46:52.435Z,2.00
2022-10-09T10:49:22.049Z,1.98
2022-10-09T10:52:20.301Z,1.80
2022-10-09T10:55:13.715Z,1.92
2022-10-09T10:57:50.608Z,2.03
2022-10-09T11:00:17.822Z,1.63
2022-10-09T11:03:10.136Z,1.58
2022-10-09T11:08:21.526Z,1.80
2022-10-09T11:11:03.149Z,2.00
2022-10-09T11:13:46.186Z,2.00
2022-10-09T11:16:54.326Z,1.80
2022-10-09T11:19:45.655Z,1.63
2022-10-09T11:22:22.242Z,1.70
2022-10-09T11:25:04.834Z,2.03
2022-10-09T11:27:51.895Z,1.73
2022-10-09T11:30:19.632Z,1.55
2022-10-09T11:33:12.646Z,2.15
2022-10-09T11:35:58.605Z,1.40
2022-10-09T11:39:03.227Z,1.70
2022-10-09T11:41:31.127Z,1.67
2022-10-09T11:44:06.631Z,2.13
2022-10-09T11:46:54.626Z,1.67
2022-10-09T11:49:58.065Z,1.70
2022-10-09T11:52:36.711Z,1.85
2022-10-09T11:55:21.365Z,1.80
2022-10-09T11:57:48.307Z,1.60
2022-10-09T12:00:15.647Z,1.80
2022-10-09T12:02:43.675Z,1.70
2022-10-09T12:05:35.403Z,1.80
2022-10-09T12:08:14.068Z,1.70
2022-10-09T12:10:53.160Z,1.80
2022-10-09T12:13:53.829Z,1.80
2022-10-09T12:16:39.752Z,2.00
2022-10-09T12:19:24.889Z,1.85
2022-10-09T12:22:11.606Z,2.03
2022-10-09T12:24:41.694Z,2.00
2022-10-09T12:27:16.084Z,1.92
2022-10-09T12:29:50.859Z,1.80
2022-10-09T12:32:32.323Z,1.73
2022-10-09T12:35:01.040Z,1.75
2022-10-09T12:37:36.863Z,1.52
2022-10-09T12:40:20.960Z,1.67
2022-10-09T12:42:47.836Z,1.95
2022-10-09T12:45:21.327Z,2.10
2022-10-09T12:47:49.047Z,1.77
2022-10-09T12:50:31.957Z,2.10
2022-10-09T12:53:00.209Z,1.95
2022-10-09T12:55:28.810Z,1.92
2022-10-09T12:58:01.003Z,1.67
2022-10-09T13:00:27.680Z,1.90
2022-10-09T13:02:54.925Z,1.45
2022-10-09T13:05:22.033Z,1.77
2022-10-09T13:07:54.264Z,1.40
2022-10-09T13:10:23.819Z,1.50
2022-10-09T13:12:52.752Z,1.73
2022-10-09T13:15:35.323Z,1.52
2022-10-09T13:18:13.943Z,1.83
2022-10-09T13:20:40.586Z,1.35
2022-10-09T13:23:07.210Z,1.45
2022-10-09T13:25:40.845Z,1.83
2022-10-09T13:28:07.882Z,1.70
2022-10-09T13:30:34.618Z,1.88
2022-10-09T13:33:01.245Z,1.73
2022-10-09T13:35:27.800Z,1.50
2022-10-09T13:37:54.343Z,1.50
2022-10-09T13:40:21.983Z,1.40
2022-10-09T13:42:57.782Z,1.80
2022-10-09T13:45:24.485Z,1.60
2022-10-09T13:47:51.671Z,1.75
2022-10-09T13:50:19.745Z,2.15
2022-10-09T13:52:46.741Z,2.00
2022-10-09T13:55:14.666Z,1.55
2022-10-09T13:57:41.385Z,1.65
2022-10-09T14:00:08.708Z,2.05
2022-10-09T14:02:35.259Z,2.22
2022-10-09T14:05:01.777Z,2.00
2022-10-09T14:07:28.394Z,1.67
2022-10-09T14:09:54.927Z,1.58
2022-10-09T14:12:21.471Z,1.50
2022-10-09T14:14:48.038Z,1.50
2022-10-09T14:17:14.579Z,1.83
2022-10-09T14:19:41.170Z,1.70
2022-10-09T14:22:07.717Z,1.80
2022-10-09T14:24:34.490Z,1.63
2022-10-09T14:27:01.064Z,1.58
2022-10-09T14:29:27.607Z,1.70
2022-10-09T14:31:54.138Z,1.67
2022-10-09T14:34:20.755Z,1.67
2022-10-09T14:36:47.905Z,1.80
2022-10-09T14:39:15.056Z,1.30
2022-10-09T14:41:42.129Z,1.55
2022-10-09T14:44:09.409Z,1.42
2022-10-09T14:46:37.832Z,1.92
2022-10-09T14:49:07.900Z,1.65
2022-10-09T14:51:37.348Z,1.50
2022-10-09T14:54:05.696Z,1.65
2022-10-09T14:56:32.397Z,1.80
2022-10-09T14:59:01.042Z,1.88
2022-10-09T15:01:29.582Z,1.50
2022-10-09T15:03:56.581Z,1.60
2022-10-09T15:06:27.704Z,1.90
2022-10-09T15:08:59.240Z,1.60
2022-10-09T15:11:29.867Z,1.80
2022-10-09T15:13:56.694Z,2.30
2022-10-09T15:16:23.716Z,2.03
2022-10-09T15:18:51.807Z,1.50
2022-10-09T15:21:21.860Z,1.58
2022-10-09T15:23:49.635Z,3.08
2022-10-09T15:26:16.565Z,2.08
2022-10-09T15:28:44.242Z,1.60
2022-10-09T15:31:43.029Z,1.90
2022-10-09T15:34:16.758Z,2.08
2022-10-09T15:36:45.783Z,2.08
2022-10-09T15:39:13.833Z,2.38
2022-10-09T15:41:42.182Z,2.00
2022-10-09T15:44:20.693Z,1.90
2022-10-09T15:46:48.679Z,2.03
2022-10-09T15:49:15.388Z,1.90
2022-10-09T15:51:42.009Z,2.15
2022-10-09T15:54:08.791Z,2.28
2022-10-09T15:56:39.610Z,2.00
2022-10-09T15:59:06.980Z,2.22
2022-10-09T16:01:33.565Z,2.15
2022-10-09T16:04:00.116Z,1.90
2022-10-09T16:06:26.958Z,2.05
2022-10-09T16:08:57.439Z,2.20
2022-10-09T16:11:26.594Z,2.10
2022-10-09T16:13:55.388Z,2.25
2022-10-09T16:16:25.012Z,2.67
2022-10-09T16:18:52.054Z,2.20
2022-10-09T16:21:21.471Z,2.55
2022-10-09T16:23:48.451Z,2.50
2022-10-09T16:26:17.931Z,3.22
2022-10-09T16:28:45.718Z,2.63
2022-10-09T16:31:27.156Z,3.00
2022-10-09T16:33:54.252Z,2.60
2022-10-09T16:36:20.936Z,2.90
2022-10-09T16:38:47.678Z,2.60
2022-10-09T16:41:17.957Z,2.90
2022-10-09T16:43:47.149Z,2.97
2022-10-09T16:46:23.369Z,2.97
2022-10-09T16:48:51.189Z,3.28
2022-10-09T16:51:21.864Z,2.95
2022-10-09T16:53:50.815Z,3.03
2022-10-09T16:56:22.978Z,4.78
2022-10-09T16:58:49.907Z,3.20
2022-10-09T17:01:16.540Z,2.58
2022-10-09T17:03:43.192Z,2.35
2022-10-09T17:06:12.877Z,2.22
2022-10-09T17:08:39.743Z,2.50
2022-10-09T17:11:11.778Z,2.85
2022-10-09T17:16:17.085Z,2.65
2022-10-09T17:18:45.509Z,3.10
2022-10-09T17:21:13.524Z,2.70
2022-10-09T17:23:40.478Z,2.85
2022-10-09T17:26:13.106Z,3.13
2022-10-09T17:28:40.838Z,2.95
2022-10-09T17:31:14.319Z,3.42
2022-10-09T17:33:42.945Z,3.40
2022-10-09T17:36:10.574Z,2.95
2022-10-09T17:38:37.618Z,3.15
2022-10-09T17:41:05.497Z,3.15
2022-10-09T17:43:32.479Z,3.58
2022-10-09T17:46:00.610Z,2.90
2022-10-09T17:48:27.919Z,3.08
2022-10-09T17:50:56.808Z,2.90
2022-10-09T17:53:23.582Z,2.72
2022-10-09T17:55:55.173Z,2.70
2022-10-09T17:58:23.648Z,2.47
2022-10-09T18:00:51.162Z,2.70
2022-10-09T18:03:18.469Z,2.80
2022-10-09T18:05:47.899Z,3.10
2022-10-09T18:08:16.245Z,2.90
2022-10-09T18:10:43.511Z,2.63
2022-10-09T18:13:11.190Z,3.30
2022-10-09T18:15:42.974Z,2.70
2022-10-09T18:18:11.372Z,2.60
2022-10-09T18:20:39.199Z,3.08
2022-10-09T18:23:07.532Z,2.55
2022-10-09T18:25:35.279Z,2.65
2022-10-09T18:28:01.804Z,2.65
2022-10-09T18:30:28.383Z,3.05
2022-10-09T18:32:54.962Z,2.70
2022-10-09T18:35:21.597Z,3.13
2022-10-09T18:37:48.097Z,3.05
2022-10-09T18:40:14.853Z,2.88
2022-10-09T18:42:41.441Z,3.28
2022-10-09T18:45:10.027Z,3.35
2022-10-09T18:47:36.654Z,2.65
2022-10-09T18:50:07.754Z,2.30
2022-10-09T18:52:35.667Z,2.67
2022-10-09T18:55:03.947Z,3.00
2022-10-09T18:57:30.632Z,2.83
2022-10-09T18:59:58.478Z,3.00
2022-10-09T19:02:27.103Z,3.22
2022-10-09T19:04:54.730Z,3.00
2022-10-09T19:07:21.554Z,3.50
2022-10-09T19:09:56.315Z,3.22
2022-10-09T19:12:24.569Z,3.58
2022-10-09T19:14:51.640Z,3.10
2022-10-09T19:17:18.228Z,3.05
2022-10-09T19:19:44.810Z,2.80
2022-10-09T19:22:15.829Z,3.83
2022-10-09T19:24:44.243Z,3.30
2022-10-09T19:27:10.890Z,3.28
2022-10-09T19:29:37.536Z,3.03
2022-10-09T19:32:04.200Z,2.83
2022-10-09T19:34:30.906Z,6.82
2022-10-09T19:36:57.915Z,5.85
2022-10-09T19:39:24.492Z,3.78
2022-10-09T19:41:51.235Z,3.67
2022-10-09T19:44:18.647Z,2.83
2022-10-09T19:46:45.945Z,2.90
2022-10-09T19:51:39.693Z,3.30
2022-10-09T19:54:08.443Z,3.00
2022-10-09T19:56:36.177Z,3.13
2022-10-09T19:59:05.742Z,3.00
2022-10-09T20:01:35.421Z,2.80
2022-10-09T20:04:05.505Z,3.58
2022-10-09T20:06:32.295Z,9.98
2022-10-09T20:08:59.212Z,8.52
2022-10-09T20:11:26.577Z,7.35
2022-10-09T20:13:55.925Z,5.75
2022-10-09T20:16:24.185Z,4.72
2022-10-09T20:18:50.833Z,3.38
2022-10-09T20:21:18.301Z,3.17
2022-10-09T20:23:45.089Z,3.25
2022-10-09T20:26:18.060Z,3.10
2022-10-09T20:28:46.266Z,3.60
2022-10-09T20:31:16.454Z,3.78
2022-10-09T20:33:43.202Z,3.30
2022-10-09T20:36:19.559Z,3.25
2022-10-09T20:38:46.091Z,3.40
2022-10-09T20:41:12.870Z,3.42
2022-10-09T20:43:40.279Z,3.88
2022-10-09T20:46:08.655Z,3.35
2022-10-09T20:48:35.748Z,3.40
2022-10-09T20:51:03.072Z,3.63
2022-10-09T20:53:29.771Z,4.03
2022-10-09T20:56:06.737Z,3.88
2022-10-09T20:58:33.810Z,4.00
2022-10-09T21:01:00.646Z,4.25
2022-10-09T21:03:27.293Z,4.20
2022-10-09T21:05:53.829Z,4.25
2022-10-09T21:08:20.411Z,4.32
2022-10-09T21:10:49.206Z,4.80
2022-10-09T21:13:16.908Z,4.68
2022-10-09T21:15:48.652Z,4.43
2022-10-09T21:18:17.309Z,4.10
2022-10-09T21:20:46.839Z,4.38
2022-10-09T21:23:15.718Z,4.40
2022-10-09T21:25:53.325Z,3.70
2022-10-09T21:28:21.134Z,4.43
2022-10-09T21:30:48.420Z,3.72
2022-10-09T21:33:15.581Z,4.20
2022-10-09T21:35:44.905Z,4.70
2022-10-09T21:38:14.575Z,4.50
2022-10-09T21:40:41.628Z,3.80
2022-10-09T21:43:08.816Z,3.33
2022-10-09T21:45:35.792Z,3.63
2022-10-09T21:48:02.422Z,3.85
2022-10-09T21:50:29.036Z,3.42
2022-10-09T21:52:55.908Z,4.47
2022-10-09T21:55:22.433Z,3.92
2022-10-09T21:57:49.230Z,3.92
2022-10-09T22:00:15.946Z,3.80
2022-10-09T22:02:42.554Z,3.80
2022-10-09T22:05:09.794Z,4.00
2022-10-09T22:07:36.543Z,4.00
2022-10-09T22:10:04.374Z,4.00
2022-10-09T22:12:30.929Z,4.20
2022-10-09T22:14:57.463Z,4.00
2022-10-09T22:17:24.064Z,3.92
2022-10-09T22:19:50.921Z,3.92
2022-10-09T22:22:17.772Z,3.83
2022-10-09T22:24:44.341Z,4.82
2022-10-09T22:27:10.873Z,4.38
2022-10-09T22:29:38.426Z,4.35
2022-10-09T22:32:06.024Z,4.82
2022-10-09T22:39:25.897Z,5.43
2022-10-09T22:41:52.456Z,5.45
2022-10-09T22:44:19.020Z,5.00
2022-10-09T22:46:45.730Z,4.40
2022-10-09T22:49:14.703Z,4.93
2022-10-09T22:54:08.529Z,5.22
2022-10-09T22:56:40.319Z,4.68
2022-10-09T22:59:08.658Z,4.63
2022-10-09T23:01:45.303Z,4.95
2022-10-09T23:04:14.538Z,5.38
2022-10-09T23:06:41.557Z,5.13
2022-10-09T23:09:11.304Z,4.97
2022-10-09T23:11:37.956Z,5.05
2022-10-09T23:14:04.521Z,4.68
2022-10-09T23:16:31.267Z,4.53
2022-10-09T23:19:05.403Z,4.30
2022-10-09T23:21:33.497Z,5.20
2022-10-09T23:24:00.052Z,4.28
2022-10-09T23:26:29.452Z,4.35
2022-10-09T23:28:59.910Z,4.95
2022-10-09T23:31:27.305Z,4.45
2022-10-09T23:33:54.796Z,4.45
2022-10-09T23:36:23.985Z,4.40
2022-10-09T23:38:51.242Z,4.85
2022-10-09T23:41:20.781Z,4.95
2022-10-09T23:43:48.513Z,4.43
2022-10-09T23:46:18.536Z,4.55
2022-10-09T23:48:46.236Z,4.55
2022-10-09T23:51:14.224Z,4.43
2022-10-09T23:53:41.599Z,5.22
2022-10-09T23:56:18.821Z,4.97
2022-10-09T23:58:45.650Z,5.93
